Main page

Milan, Italy

Malpensa Airport

latitude: 45-37N, longitude: 008-44E, elevation: 234 m

Current weather observation

The report was made 36 minutes ago, at 03:20 UTC
Wind 2 kt from the North/Northeast
Temperature 11°C
Humidity 100%
Pressure 1007 hPa
Visibility 10 km or more
Broken clouds at a height of 7000 ft

METAR: LIMC 140320Z 02002KT 9999 BKN070 11/11 Q1007 NOSIG

Time: 05:56 (03:56 UTC)


The report was made 4 hours and 56 minutes ago, at 23:00 UTC
Forecast valid from 14 at 00 UTC to 15 at 06 UTC
Wind 5 kt from variable directions
Visibility: 2500 m
Scattered clouds at a height of 500 ft
Overcast at a height of 3000 ft
from 14 at 00 UTC to 14 at 03 UTC
from 14 at 06 UTC to 14 at 08 UTC
Visibility: 5000 m
from 14 at 15 UTC to 14 at 24 UTC
from 15 at 00 UTC to 15 at 06 UTC
thunderstorm, rain

TAF: LIMC 132300Z 1400/1506 VRB05KT 2500 BR SCT005 OVC030 TEMPO 1400/1403 DZ BECMG 1406/1408 5000 TEMPO 1415/1424 RA TEMPO 1500/1506 TSRA


Weather observations and forecasts of more than 4000 airports (METAR and TAF reports).

The available stations are represented by yellow and red dots on the map.

Hover mouse over dot to see the name of the station.

Then click to see weather observations and forecasts.

To change the map : click on the green buttons with a black cross to zoom in, on the green button with a dash to zoom out, or on the green arrows for adjacent maps.